createdAt,value
2023-03-10T00:00:39.499Z,1.30
2023-03-10T00:03:06.408Z,2.03
2023-03-10T00:05:33.211Z,1.95
2023-03-10T00:08:00.121Z,1.50
2023-03-10T00:10:26.942Z,1.92
2023-03-10T00:12:53.669Z,1.30
2023-03-10T00:15:20.376Z,1.40
2023-03-10T00:17:50.048Z,1.60
2023-03-10T00:20:17.131Z,1.52
2023-03-10T00:22:43.852Z,2.05
2023-03-10T00:25:11.476Z,1.65
2023-03-10T00:27:38.248Z,1.50
2023-03-10T00:30:05.655Z,0.95
2023-03-10T00:32:35.893Z,1.58
2023-03-10T00:35:05.276Z,1.05
2023-03-10T00:37:32.054Z,1.52
2023-03-10T00:39:58.940Z,1.58
2023-03-10T00:42:25.641Z,1.60
2023-03-10T00:44:52.496Z,0.98
2023-03-10T00:47:19.250Z,1.40
2023-03-10T00:49:47.993Z,1.33
2023-03-10T00:52:14.819Z,1.40
2023-03-10T00:54:42.050Z,1.60
2023-03-10T00:57:09.347Z,1.30
2023-03-10T00:59:49.324Z,1.42
2023-03-10T01:02:18.220Z,1.27
2023-03-10T01:04:45.188Z,2.08
2023-03-10T01:07:12.034Z,1.15
2023-03-10T01:09:38.732Z,1.30
2023-03-10T01:12:05.862Z,1.63
2023-03-10T01:14:32.579Z,0.98
2023-03-10T01:16:59.474Z,1.48
2023-03-10T01:19:26.258Z,1.60
2023-03-10T01:21:52.977Z,1.40
2023-03-10T01:24:19.841Z,1.33
2023-03-10T01:26:46.611Z,1.23
2023-03-10T01:29:13.451Z,2.17
2023-03-10T01:31:41.846Z,0.95
2023-03-10T01:34:08.963Z,1.58
2023-03-10T01:36:36.092Z,1.40
2023-03-10T01:39:02.921Z,1.25
2023-03-10T01:41:29.787Z,1.80
2023-03-10T01:43:57.573Z,1.30
2023-03-10T01:46:27.490Z,1.20
2023-03-10T01:48:59.430Z,1.85
2023-03-10T01:51:27.554Z,1.20
2023-03-10T01:53:54.541Z,1.45
2023-03-10T01:56:21.376Z,1.63
2023-03-10T01:58:49.525Z,0.85
2023-03-10T02:01:17.993Z,1.55
2023-03-10T02:04:04.426Z,1.40
2023-03-10T02:06:32.609Z,1.40
2023-03-10T02:09:01.732Z,1.00
2023-03-10T02:11:29.436Z,1.52
2023-03-10T02:13:56.545Z,0.93
2023-03-10T02:16:24.008Z,2.00
2023-03-10T02:18:51.001Z,1.63
2023-03-10T02:21:39.258Z,1.23
2023-03-10T02:24:22.390Z,1.60
2023-03-10T02:27:02.792Z,2.20
2023-03-10T02:29:35.552Z,1.17
2023-03-10T02:32:04.611Z,1.55
2023-03-10T02:34:31.519Z,1.70
2023-03-10T02:36:58.392Z,1.65
2023-03-10T02:39:25.275Z,1.38
2023-03-10T02:41:52.916Z,1.25
2023-03-10T02:44:23.425Z,1.40
2023-03-10T02:46:51.026Z,1.13
2023-03-10T02:49:21.634Z,1.60
2023-03-10T02:51:48.477Z,1.17
2023-03-10T02:54:17.774Z,1.38
2023-03-10T02:56:45.412Z,1.67
2023-03-10T02:59:13.218Z,1.10
2023-03-10T03:01:45.173Z,2.67
2023-03-10T03:04:12.321Z,1.60
2023-03-10T03:06:40.209Z,1.60
2023-03-10T03:09:07.641Z,2.20
2023-03-10T03:11:35.193Z,1.10
2023-03-10T03:14:02.760Z,2.40
2023-03-10T03:16:30.335Z,2.47
2023-03-10T03:19:01.050Z,0.75
2023-03-10T03:21:28.752Z,2.55
2023-03-10T03:23:55.741Z,0.90
2023-03-10T03:26:25.473Z,2.07
2023-03-10T03:28:57.063Z,1.35
2023-03-10T03:31:27.834Z,1.45
2023-03-10T03:34:05.137Z,0.88
2023-03-10T03:36:31.949Z,1.45
2023-03-10T03:38:58.691Z,1.55
2023-03-10T03:41:28.509Z,2.53
2023-03-10T03:43:55.396Z,2.35
2023-03-10T03:46:22.233Z,20.73
2023-03-10T03:48:49.536Z,116.70
2023-03-10T03:51:16.558Z,160.33
2023-03-10T03:53:43.441Z,356.05
2023-03-10T03:56:10.273Z,239.52
2023-03-10T03:58:38.137Z,351.95
2023-03-10T04:01:05.345Z,419.02
2023-03-10T04:03:39.193Z,531.50
2023-03-10T04:06:09.317Z,573.78
2023-03-10T04:08:36.916Z,563.05
2023-03-10T04:11:04.509Z,377.83
2023-03-10T04:13:33.058Z,539.47
2023-03-10T04:16:00.820Z,540.70
2023-03-10T04:18:33.266Z,476.10
2023-03-10T04:21:01.040Z,417.10
2023-03-10T04:23:28.256Z,212.35
2023-03-10T04:25:55.743Z,468.88
2023-03-10T04:28:22.569Z,427.00
2023-03-10T04:30:50.614Z,538.58
2023-03-10T04:33:20.394Z,546.75
2023-03-10T04:35:51.267Z,603.23
2023-03-10T04:38:19.927Z,619.90
2023-03-10T04:40:54.013Z,599.35
2023-03-10T04:43:21.426Z,635.13
2023-03-10T04:45:48.729Z,570.33
2023-03-10T04:48:16.022Z,594.60
2023-03-10T04:50:43.219Z,474.30
2023-03-10T04:53:10.809Z,399.42
2023-03-10T04:55:38.230Z,371.52
2023-03-10T04:58:05.799Z,401.83
2023-03-10T05:00:32.951Z,329.17
2023-03-10T05:03:00.599Z,195.37
2023-03-10T05:05:27.391Z,362.02
2023-03-10T05:07:54.076Z,353.02
2023-03-10T05:10:20.800Z,421.73
2023-03-10T05:12:47.581Z,528.35
2023-03-10T05:15:14.401Z,581.42
2023-03-10T05:17:41.453Z,410.75
2023-03-10T05:20:09.699Z,466.92
2023-03-10T05:22:38.457Z,655.63
2023-03-10T05:25:10.221Z,600.08
2023-03-10T05:27:38.849Z,678.28
2023-03-10T05:30:07.816Z,835.38
2023-03-10T05:32:35.872Z,816.20
2023-03-10T05:35:03.721Z,797.80
2023-03-10T05:37:36.831Z,722.58
2023-03-10T05:40:04.121Z,993.08
2023-03-10T05:42:31.033Z,928.47
2023-03-10T05:44:57.891Z,944.38
2023-03-10T05:47:24.847Z,851.05
2023-03-10T05:49:51.797Z,647.97
2023-03-10T05:52:18.972Z,943.42
2023-03-10T05:54:46.416Z,1025.18
2023-03-10T05:57:14.602Z,1062.60
2023-03-10T05:59:42.754Z,1064.07
2023-03-10T06:02:10.097Z,1079.43
2023-03-10T06:04:37.165Z,1092.50
2023-03-10T06:09:32.609Z,1083.67
2023-03-10T06:14:26.673Z,1095.50
2023-03-10T06:34:04.869Z,1020.90
2023-03-10T07:01:08.818Z,244.93
2023-03-10T07:03:36.703Z,287.23
2023-03-10T07:08:31.741Z,114.67
2023-03-10T07:10:58.519Z,111.70
2023-03-10T07:13:25.264Z,1068.22
2023-03-10T07:15:52.078Z,991.72
2023-03-10T07:18:19.055Z,978.60
2023-03-10T07:20:46.017Z,604.95
2023-03-10T07:23:13.628Z,798.75
2023-03-10T07:25:40.456Z,629.80
2023-03-10T07:28:08.056Z,506.08
2023-03-10T07:30:35.232Z,463.65
2023-03-10T07:33:01.962Z,358.17
2023-03-10T07:35:28.811Z,488.80
2023-03-10T07:37:55.655Z,629.00
2023-03-10T07:40:24.863Z,654.25
2023-03-10T07:42:55.060Z,755.10
2023-03-10T07:45:23.934Z,696.92
2023-03-10T07:47:51.702Z,655.23
2023-03-10T07:50:19.164Z,622.13
2023-03-10T07:52:46.076Z,678.17
2023-03-10T07:55:13.205Z,652.73
2023-03-10T07:57:40.162Z,731.67
2023-03-10T08:00:07.702Z,671.30
2023-03-10T08:02:41.141Z,593.33
2023-03-10T08:05:09.384Z,622.30
2023-03-10T08:07:37.170Z,644.35
2023-03-10T08:10:04.375Z,615.42
2023-03-10T08:12:31.069Z,670.05
2023-03-10T08:14:57.929Z,690.20
2023-03-10T08:17:30.572Z,685.47
2023-03-10T08:19:58.508Z,712.33
2023-03-10T08:22:25.831Z,755.75
2023-03-10T08:24:52.760Z,757.58
2023-03-10T08:27:19.785Z,333.98
2023-03-10T08:29:46.661Z,283.92
2023-03-10T08:32:13.402Z,350.95
2023-03-10T08:34:40.284Z,349.23
2023-03-10T08:37:07.121Z,373.15
2023-03-10T08:39:33.865Z,339.47
2023-03-10T08:42:00.648Z,352.10
2023-03-10T08:44:27.494Z,279.50
2023-03-10T08:46:54.464Z,225.45
2023-03-10T08:49:22.268Z,246.97
2023-03-10T08:51:49.516Z,697.85
2023-03-10T08:54:19.476Z,248.50
2023-03-10T08:56:46.552Z,616.40
2023-03-10T08:59:13.471Z,844.38
2023-03-10T09:01:40.569Z,174.00
2023-03-10T09:04:08.725Z,165.65
2023-03-10T09:06:35.852Z,170.98
2023-03-10T09:09:05.051Z,206.43
2023-03-10T09:11:36.389Z,769.10
2023-03-10T09:14:05.046Z,295.00
2023-03-10T09:16:32.079Z,254.50
2023-03-10T09:19:00.135Z,268.70
2023-03-10T09:21:28.434Z,277.55
2023-03-10T09:23:55.434Z,248.45
2023-03-10T09:26:22.262Z,249.25
2023-03-10T09:28:50.905Z,216.35
2023-03-10T09:31:24.487Z,237.43
2023-03-10T09:33:51.327Z,192.07
2023-03-10T09:36:18.784Z,249.85
2023-03-10T09:38:45.682Z,258.40
2023-03-10T09:41:38.486Z,265.97
2023-03-10T09:44:12.473Z,634.20
2023-03-10T10:27:40.685Z,1071.70
2023-03-10T11:06:30.063Z,0.80
2023-03-10T11:09:18.101Z,1.50
2023-03-10T11:11:52.016Z,3.03
2023-03-10T11:14:56.550Z,1.60
2023-03-10T11:17:44.348Z,0.88
2023-03-10T11:20:30.005Z,0.93
2023-03-10T11:23:34.054Z,1.07
2023-03-10T11:26:03.780Z,2.10
2023-03-10T11:29:05.058Z,1.20
2023-03-10T11:32:01.241Z,1.05
2023-03-10T11:34:45.999Z,1.00
2023-03-10T11:37:26.106Z,0.90
2023-03-10T11:40:21.825Z,1.35
2023-03-10T11:43:01.124Z,1.80
2023-03-10T11:45:37.453Z,1.30
2023-03-10T11:48:32.548Z,1.50
2023-03-10T11:51:04.417Z,1.53
2023-03-10T11:53:54.101Z,1.63
2023-03-10T11:56:23.342Z,2.17
2023-03-10T11:58:58.853Z,1.98
2023-03-10T12:01:34.376Z,2.30
2023-03-10T12:04:30.136Z,2.78
2023-03-10T12:07:19.574Z,3.22
2023-03-10T12:09:54.175Z,1.73
2023-03-10T12:12:27.240Z,3.70
2023-03-10T12:14:55.064Z,2.92
2023-03-10T12:17:21.881Z,2.03
2023-03-10T12:20:17.392Z,1.70
2023-03-10T12:22:51.352Z,1.98
2023-03-10T12:25:30.147Z,2.10
2023-03-10T12:28:30.793Z,2.00
2023-03-10T12:31:02.250Z,3.00
2023-03-10T12:33:37.429Z,2.17
2023-03-10T12:36:09.297Z,1.60
2023-03-10T12:38:47.859Z,1.65
2023-03-10T12:42:00.770Z,1.55
2023-03-10T12:44:43.341Z,2.05
2023-03-10T12:47:35.899Z,0.98
2023-03-10T12:50:22.752Z,1.83
2023-03-10T12:53:00.363Z,1.70
2023-03-10T12:55:28.711Z,3.10
2023-03-10T12:58:27.888Z,2.37
2023-03-10T13:01:01.698Z,378.48
2023-03-10T13:03:41.801Z,955.33
2023-03-10T13:08:47.190Z,44.92
2023-03-10T13:11:38.482Z,233.50
2023-03-10T13:14:15.207Z,812.35
2023-03-10T13:16:53.391Z,1058.55
2023-03-10T13:19:22.421Z,1089.40
2023-03-10T13:29:34.665Z,1093.15
2023-03-10T13:34:30.198Z,1098.70
2023-03-10T13:37:07.419Z,1068.70
2023-03-10T13:39:34.430Z,1027.22
2023-03-10T13:44:39.925Z,988.30
2023-03-10T13:47:34.568Z,1105.40
2023-03-10T13:50:02.890Z,1067.33
2023-03-10T13:52:31.564Z,1032.18
2023-03-10T14:00:15.785Z,443.25
2023-03-10T14:02:44.986Z,1.10
2023-03-10T14:05:37.090Z,1.17
2023-03-10T14:08:04.531Z,2.10
2023-03-10T14:10:31.438Z,1.90
2023-03-10T14:12:58.371Z,1.50
2023-03-10T14:15:26.524Z,2.07
2023-03-10T14:18:08.309Z,2.55
2023-03-10T14:20:43.445Z,1.88
2023-03-10T14:23:19.474Z,3.05
2023-03-10T14:25:48.324Z,1.35
2023-03-10T14:28:21.772Z,1.65
2023-03-10T14:30:48.694Z,1.85
2023-03-10T14:33:16.542Z,2.30
2023-03-10T14:35:45.808Z,1.77
2023-03-10T14:38:13.019Z,1.75
2023-03-10T14:40:46.004Z,1.58
2023-03-10T14:43:22.250Z,1.67
2023-03-10T14:45:50.832Z,2.03
2023-03-10T14:48:20.669Z,0.82
2023-03-10T14:50:48.376Z,3.50
2023-03-10T14:53:18.016Z,3.38
2023-03-10T14:55:47.729Z,2.90
2023-03-10T14:58:36.274Z,3.78
2023-03-10T15:01:03.207Z,1.60
2023-03-10T15:03:30.347Z,1.83
2023-03-10T15:05:57.089Z,1.50
2023-03-10T15:08:24.404Z,2.63
2023-03-10T15:10:52.787Z,3.83
2023-03-10T15:13:23.661Z,2.13
2023-03-10T15:15:50.697Z,2.15
2023-03-10T15:18:20.167Z,2.70
2023-03-10T15:20:47.608Z,2.38
2023-03-10T15:23:18.173Z,1.75
2023-03-10T15:25:46.425Z,2.08
2023-03-10T15:28:13.667Z,1.73
2023-03-10T15:30:40.730Z,2.17
2023-03-10T15:33:07.684Z,2.20
2023-03-10T15:35:35.063Z,2.80
2023-03-10T15:38:02.730Z,2.75
2023-03-10T15:40:31.556Z,1.43
2023-03-10T15:42:59.820Z,1.75
2023-03-10T15:45:28.627Z,2.35
2023-03-10T15:47:55.826Z,2.10
2023-03-10T15:50:23.242Z,2.38
2023-03-10T15:52:56.135Z,3.38
2023-03-10T15:55:23.533Z,1.30
2023-03-10T15:57:51.222Z,1.57
2023-03-10T16:00:20.098Z,2.05
2023-03-10T16:02:48.024Z,2.95
2023-03-10T16:05:15.554Z,1.48
2023-03-10T16:07:42.475Z,2.67
2023-03-10T16:10:11.113Z,2.20
2023-03-10T16:12:37.854Z,2.85
2023-03-10T16:15:05.212Z,1.85
2023-03-10T16:17:32.078Z,3.38
2023-03-10T16:20:01.962Z,2.08
2023-03-10T16:22:28.826Z,1.30
2023-03-10T16:24:55.611Z,1.45
2023-03-10T16:27:22.380Z,1.77
2023-03-10T16:29:49.151Z,1.23
2023-03-10T16:32:17.564Z,2.67
2023-03-10T16:34:44.469Z,2.30
2023-03-10T16:37:11.220Z,1.70
2023-03-10T16:39:37.990Z,1.73
2023-03-10T16:42:05.077Z,1.83
2023-03-10T16:44:33.753Z,2.42
2023-03-10T16:47:00.389Z,1.75
2023-03-10T16:49:27.137Z,2.58
2023-03-10T16:51:53.882Z,2.38
2023-03-10T16:54:22.063Z,2.10
2023-03-10T16:56:50.987Z,2.20
2023-03-10T16:59:23.884Z,1.15
2023-03-10T17:01:51.221Z,3.00
2023-03-10T17:04:18.831Z,2.53
2023-03-10T17:06:46.039Z,3.45
2023-03-10T17:09:14.895Z,2.13
2023-03-10T17:11:46.363Z,2.40
2023-03-10T17:14:15.728Z,2.85
2023-03-10T17:16:43.544Z,1.55
2023-03-10T17:19:17.306Z,3.17
2023-03-10T17:21:46.703Z,2.40
2023-03-10T17:24:15.026Z,3.30
2023-03-10T17:26:42.088Z,2.03
2023-03-10T17:29:09.276Z,2.30
2023-03-10T17:31:36.498Z,2.85
2023-03-10T17:34:06.691Z,2.38
2023-03-10T17:36:34.069Z,1.85
2023-03-10T17:39:02.420Z,2.47
2023-03-10T17:41:30.665Z,3.07
2023-03-10T17:43:57.678Z,1.48
2023-03-10T17:46:27.257Z,2.88
2023-03-10T17:48:54.832Z,1.58
2023-03-10T17:51:25.248Z,1.83
2023-03-10T17:53:53.008Z,1.85
2023-03-10T17:56:21.793Z,2.88
2023-03-10T17:58:49.175Z,1.40
2023-03-10T18:01:19.505Z,1.98
2023-03-10T18:03:48.250Z,2.15
2023-03-10T18:06:20.943Z,2.80
2023-03-10T18:08:48.349Z,1.33
2023-03-10T18:11:15.704Z,1.53
2023-03-10T18:13:42.506Z,2.60
2023-03-10T18:16:20.695Z,2.95
2023-03-10T18:18:47.585Z,2.92
2023-03-10T18:21:16.085Z,2.10
2023-03-10T18:23:43.652Z,1.88
2023-03-10T18:26:13.394Z,2.13
2023-03-10T18:28:40.536Z,1.63
2023-03-10T18:31:09.683Z,1.67
2023-03-10T18:33:37.348Z,2.00
2023-03-10T18:36:06.509Z,2.63
2023-03-10T18:38:33.234Z,2.83
2023-03-10T18:41:01.624Z,1.40
2023-03-10T18:43:32.196Z,1.70
2023-03-10T18:45:59.005Z,3.17
2023-03-10T18:48:28.386Z,1.85
2023-03-10T18:50:57.461Z,2.38
2023-03-10T18:53:26.092Z,2.65
2023-03-10T18:55:53.374Z,2.33
2023-03-10T18:58:20.688Z,2.33
2023-03-10T19:00:47.872Z,2.97
2023-03-10T19:03:15.028Z,1.90
2023-03-10T19:05:42.374Z,1.85
2023-03-10T19:08:10.290Z,2.08
2023-03-10T19:10:39.173Z,2.33
2023-03-10T19:13:07.277Z,1.52
2023-03-10T19:15:34.544Z,2.63
2023-03-10T19:18:01.322Z,1.67
2023-03-10T19:20:28.183Z,1.90
2023-03-10T19:22:54.914Z,2.23
2023-03-10T19:25:23.831Z,1.83
2023-03-10T19:27:50.637Z,1.97
2023-03-10T19:30:22.724Z,1.98
2023-03-10T19:32:49.574Z,2.33
2023-03-10T19:35:18.371Z,2.03
2023-03-10T19:37:46.970Z,1.75
2023-03-10T19:40:17.013Z,2.08
2023-03-10T19:42:44.214Z,1.55
2023-03-10T19:45:13.139Z,1.65
2023-03-10T19:47:41.467Z,1.53
2023-03-10T19:50:09.784Z,2.15
2023-03-10T19:52:38.830Z,1.88
2023-03-10T19:55:09.881Z,1.75
2023-03-10T19:57:36.939Z,1.60
2023-03-10T20:00:07.133Z,2.50
2023-03-10T20:02:34.039Z,2.75
2023-03-10T20:05:00.874Z,1.17
2023-03-10T20:07:27.630Z,2.22
2023-03-10T20:09:54.352Z,2.50
2023-03-10T20:12:21.209Z,1.55
2023-03-10T20:14:48.410Z,2.15
2023-03-10T20:17:16.888Z,3.25
2023-03-10T20:19:45.539Z,2.30
2023-03-10T20:22:15.051Z,1.50
2023-03-10T20:24:41.933Z,1.88
2023-03-10T20:27:08.729Z,1.27
2023-03-10T20:29:35.469Z,1.10
2023-03-10T20:32:04.224Z,1.20
2023-03-10T20:34:31.691Z,1.05
2023-03-10T20:36:58.455Z,1.83
2023-03-10T20:39:25.280Z,1.77
2023-03-10T20:41:52.581Z,1.98
2023-03-10T20:44:19.449Z,1.90
2023-03-10T20:46:46.383Z,2.13
2023-03-10T20:49:13.210Z,1.90
2023-03-10T20:51:40.105Z,1.30
2023-03-10T20:54:08.292Z,1.27
2023-03-10T20:56:35.298Z,1.65
2023-03-10T20:59:02.234Z,1.83
2023-03-10T21:01:29.937Z,1.80
2023-03-10T21:03:58.414Z,1.23
2023-03-10T21:06:28.756Z,1.40
2023-03-10T21:08:55.670Z,1.85
2023-03-10T21:11:23.425Z,1.13
2023-03-10T21:13:50.824Z,1.10
2023-03-10T21:16:20.263Z,1.40
2023-03-10T21:18:47.487Z,1.33
2023-03-10T21:21:14.178Z,2.08
2023-03-10T21:23:41.874Z,1.30
2023-03-10T21:26:14.795Z,0.98
2023-03-10T21:28:42.111Z,1.53
2023-03-10T21:31:09.297Z,1.90
2023-03-10T21:33:36.173Z,1.92
2023-03-10T21:36:03.147Z,3.17
2023-03-10T21:38:30.061Z,1.98
2023-03-10T21:40:56.881Z,1.02
2023-03-10T21:43:26.371Z,1.80
2023-03-10T21:45:53.331Z,1.20
2023-03-10T21:48:20.029Z,1.92
2023-03-10T21:50:46.813Z,2.13
2023-03-10T21:53:13.634Z,1.80
2023-03-10T21:55:40.619Z,2.33
2023-03-10T21:58:07.498Z,1.88
2023-03-10T22:00:36.173Z,1.38
2023-03-10T22:03:04.888Z,2.00
2023-03-10T22:05:31.734Z,1.95
2023-03-10T22:07:59.256Z,2.30
2023-03-10T22:10:26.453Z,1.85
2023-03-10T22:12:53.160Z,1.77
2023-03-10T22:15:23.322Z,2.03
2023-03-10T22:17:50.536Z,1.48
2023-03-10T22:20:21.154Z,1.30
2023-03-10T22:22:48.847Z,1.70
2023-03-10T22:25:16.552Z,1.27
2023-03-10T22:27:45.890Z,1.60
2023-03-10T22:30:14.003Z,1.70
2023-03-10T22:32:41.039Z,2.30
2023-03-10T22:35:09.798Z,1.30
2023-03-10T22:37:40.447Z,1.60
2023-03-10T22:40:12.256Z,1.20
2023-03-10T22:42:39.745Z,1.55
2023-03-10T22:45:26.727Z,1.80
2023-03-10T22:47:58.372Z,1.25
2023-03-10T22:50:32.473Z,1.95
2023-03-10T22:53:05.662Z,1.30
2023-03-10T22:55:34.932Z,1.00
2023-03-10T22:58:06.692Z,1.02
2023-03-10T23:00:34.519Z,1.52
2023-03-10T23:03:01.953Z,1.20
2023-03-10T23:05:28.809Z,2.63
2023-03-10T23:07:56.513Z,1.13
2023-03-10T23:10:27.001Z,1.13
2023-03-10T23:12:54.671Z,1.60
2023-03-10T23:15:25.971Z,1.77
2023-03-10T23:17:54.498Z,2.25
2023-03-10T23:20:27.286Z,2.70
2023-03-10T23:22:56.346Z,1.90
2023-03-10T23:25:24.604Z,1.10
2023-03-10T23:27:51.458Z,1.30
2023-03-10T23:30:18.586Z,1.48
2023-03-10T23:32:47.553Z,2.03
2023-03-10T23:35:16.136Z,1.45
2023-03-10T23:37:42.949Z,1.25
2023-03-10T23:40:13.552Z,1.13
2023-03-10T23:42:41.261Z,2.08
2023-03-10T23:45:11.405Z,1.20
2023-03-10T23:47:39.112Z,1.25
2023-03-10T23:50:07.941Z,1.05
2023-03-10T23:52:35.183Z,1.20
2023-03-10T23:55:01.980Z,1.37
2023-03-10T23:57:28.746Z,1.67
2023-03-10T23:59:55.533Z,1.27
